createdAt,value
2023-05-19T00:02:51.138Z,21.04
2023-05-19T00:05:55.972Z,21.05
2023-05-19T00:09:01.256Z,21.05
2023-05-19T00:12:05.124Z,21.01
2023-05-19T00:15:11.850Z,21.03
2023-05-19T00:18:16.751Z,20.99
2023-05-19T00:21:20.102Z,20.99
2023-05-19T00:24:23.312Z,21.02
2023-05-19T00:27:26.713Z,21.00
2023-05-19T00:30:31.763Z,20.97
2023-05-19T00:33:35.455Z,21.00
2023-05-19T00:36:38.695Z,20.97
2023-05-19T00:39:41.968Z,20.97
2023-05-19T00:45:49.785Z,20.97
2023-05-19T00:48:53.439Z,20.91
2023-05-19T00:51:57.561Z,20.96
2023-05-19T00:55:01.376Z,20.92
2023-05-19T00:58:06.088Z,20.89
2023-05-19T01:01:12.415Z,20.86
2023-05-19T01:04:17.349Z,20.93
2023-05-19T01:07:21.445Z,20.96
2023-05-19T01:10:24.873Z,20.87
2023-05-19T01:13:30.670Z,20.91
2023-05-19T01:16:41.540Z,20.90
2023-05-19T01:19:57.530Z,20.90
2023-05-19T01:23:36.956Z,20.89
2023-05-19T01:27:24.262Z,20.92
2023-05-19T01:30:35.189Z,20.91
2023-05-19T01:33:41.106Z,20.90
2023-05-19T01:36:45.979Z,20.88
2023-05-19T01:39:50.353Z,20.88
2023-05-19T01:42:57.392Z,20.88
2023-05-19T01:46:03.790Z,20.86
2023-05-19T01:49:07.781Z,20.82
2023-05-19T01:52:11.066Z,20.83
2023-05-19T01:55:14.514Z,20.86
2023-05-19T01:58:24.043Z,20.84
2023-05-19T02:01:35.421Z,20.84
2023-05-19T02:04:45.472Z,20.84
2023-05-19T02:07:59.307Z,20.85
2023-05-19T02:11:09.339Z,20.85
2023-05-19T02:14:17.519Z,20.86
2023-05-19T02:17:24.628Z,20.85
2023-05-19T02:20:28.074Z,20.84
2023-05-19T02:23:31.331Z,20.85
2023-05-19T02:26:34.472Z,20.86
2023-05-19T02:29:37.655Z,20.78
2023-05-19T02:32:42.175Z,20.81
2023-05-19T02:35:45.380Z,20.78
2023-05-19T02:38:50.310Z,20.80
2023-05-19T02:41:53.409Z,20.79
2023-05-19T02:44:56.803Z,20.78
2023-05-19T02:48:01.527Z,20.81
2023-05-19T02:51:05.445Z,20.77
2023-05-19T02:54:08.604Z,20.67
2023-05-19T02:57:12.032Z,20.78
2023-05-19T03:00:16.233Z,20.80
2023-05-19T03:03:20.855Z,20.80
2023-05-19T03:06:24.465Z,20.77
2023-05-19T03:09:27.579Z,20.74
2023-05-19T03:12:31.775Z,20.76
2023-05-19T03:15:35.353Z,20.73
2023-05-19T03:18:40.007Z,20.76
2023-05-19T03:21:43.103Z,20.80
2023-05-19T03:24:46.284Z,20.79
2023-05-19T03:27:49.492Z,20.78
2023-05-19T03:30:52.658Z,20.80
2023-05-19T03:33:57.978Z,20.84
2023-05-19T03:37:01.060Z,20.86
2023-05-19T03:40:05.769Z,20.86
2023-05-19T03:43:09.198Z,20.86
2023-05-19T03:46:12.348Z,20.86
2023-05-19T03:49:17.032Z,20.84
2023-05-19T03:52:20.256Z,20.86
2023-05-19T03:55:23.500Z,20.85
2023-05-19T03:58:26.867Z,20.79
2023-05-19T04:01:30.101Z,20.76
2023-05-19T04:04:34.807Z,20.71
2023-05-19T04:07:37.994Z,20.72
2023-05-19T04:10:41.313Z,20.77
2023-05-19T04:13:45.254Z,20.77
2023-05-19T04:16:48.591Z,20.81
2023-05-19T04:19:53.187Z,20.88
2023-05-19T04:22:56.331Z,20.90
2023-05-19T04:26:00.614Z,20.90
2023-05-19T04:29:04.952Z,20.84
2023-05-19T04:32:08.546Z,20.82
2023-05-19T04:35:13.804Z,20.65
2023-05-19T04:38:19.072Z,20.70
2023-05-19T04:41:23.127Z,20.29
2023-05-19T04:44:26.349Z,19.82
2023-05-19T04:47:30.231Z,19.80
2023-05-19T04:50:35.530Z,19.99
2023-05-19T04:53:40.375Z,20.17
2023-05-19T04:56:43.877Z,20.32
2023-05-19T04:59:47.375Z,20.39
2023-05-19T05:02:51.039Z,20.36
2023-05-19T05:05:56.854Z,20.32
2023-05-19T05:09:00.778Z,20.35
2023-05-19T05:12:04.817Z,20.34
2023-05-19T05:15:09.319Z,20.34
2023-05-19T05:18:13.256Z,20.35
2023-05-19T05:21:18.422Z,20.31
2023-05-19T05:24:22.214Z,20.37
2023-05-19T05:27:25.392Z,20.39
2023-05-19T05:30:28.509Z,20.39
2023-05-19T05:33:31.706Z,20.43
2023-05-19T05:36:36.311Z,20.44
2023-05-19T05:39:39.471Z,20.46
2023-05-19T05:42:43.009Z,20.53
2023-05-19T05:45:46.307Z,20.54
2023-05-19T05:48:50.284Z,20.56
2023-05-19T05:52:05.480Z,20.64
2023-05-19T05:55:10.926Z,20.68
2023-05-19T05:58:14.927Z,20.71
2023-05-19T06:01:24.192Z,20.76
2023-05-19T06:04:27.377Z,20.78
2023-05-19T06:07:32.003Z,20.79
2023-05-19T06:10:35.745Z,20.87
2023-05-19T06:13:41.463Z,20.97
2023-05-19T06:16:44.650Z,21.01
2023-05-19T06:19:48.248Z,21.05
2023-05-19T06:22:53.044Z,21.08
2023-05-19T06:25:56.402Z,21.11
2023-05-19T06:28:59.587Z,21.15
2023-05-19T06:32:02.825Z,21.16
2023-05-19T06:35:06.935Z,21.16
2023-05-19T06:38:11.546Z,21.22
2023-05-19T06:41:14.910Z,21.24
2023-05-19T06:44:20.437Z,21.19
2023-05-19T06:47:24.275Z,20.75
2023-05-19T06:50:27.725Z,20.59
2023-05-19T06:53:32.404Z,20.67
2023-05-19T06:56:36.535Z,20.76
2023-05-19T06:59:40.970Z,20.93
2023-05-19T07:02:44.313Z,21.09
2023-05-19T07:05:48.137Z,21.39
2023-05-19T07:08:52.715Z,21.56
2023-05-19T07:11:56.619Z,21.69
2023-05-19T07:14:59.808Z,21.77
2023-05-19T07:18:03.061Z,21.76
2023-05-19T07:21:07.384Z,21.78
2023-05-19T07:24:11.969Z,21.82
2023-05-19T07:27:15.503Z,21.86
2023-05-19T07:30:18.675Z,21.89
2023-05-19T07:33:21.850Z,21.89
2023-05-19T07:36:25.102Z,21.88
2023-05-19T07:39:29.918Z,22.09
2023-05-19T07:42:33.116Z,22.93
2023-05-19T07:45:36.414Z,23.79
2023-05-19T07:48:39.646Z,24.32
2023-05-19T07:51:43.019Z,24.58
2023-05-19T07:54:47.704Z,24.74
2023-05-19T07:57:51.025Z,24.79
2023-05-19T08:00:54.162Z,24.94
2023-05-19T08:03:57.905Z,25.07
2023-05-19T08:07:01.138Z,25.17
2023-05-19T08:10:06.314Z,25.23
2023-05-19T08:13:09.428Z,25.26
2023-05-19T08:16:12.648Z,25.38
2023-05-19T08:19:15.996Z,25.03
2023-05-19T08:22:19.208Z,24.49
2023-05-19T08:25:23.781Z,24.67
2023-05-19T08:28:27.058Z,24.90
2023-05-19T08:31:30.532Z,25.02
2023-05-19T08:34:33.772Z,25.09
2023-05-19T08:37:38.767Z,25.28
2023-05-19T08:40:44.134Z,25.08
2023-05-19T08:43:47.376Z,24.52
2023-05-19T08:46:51.250Z,24.52
2023-05-19T08:50:07.781Z,24.82
2023-05-19T08:53:31.880Z,24.91
2023-05-19T08:56:39.546Z,25.09
2023-05-19T08:59:44.906Z,25.18
2023-05-19T09:03:00.283Z,25.26
2023-05-19T09:06:09.657Z,25.34
2023-05-19T09:09:13.129Z,25.48
2023-05-19T09:12:17.669Z,25.60
2023-05-19T09:15:20.770Z,25.47
2023-05-19T09:18:25.753Z,24.87
2023-05-19T09:21:31.621Z,25.07
2023-05-19T09:24:36.093Z,25.29
2023-05-19T09:27:40.578Z,25.55
2023-05-19T09:30:43.774Z,25.72
2023-05-19T09:33:46.892Z,25.02
2023-05-19T09:36:50.909Z,25.02
2023-05-19T09:39:54.668Z,25.35
2023-05-19T09:42:59.180Z,25.67
2023-05-19T09:46:04.963Z,25.40
2023-05-19T09:49:10.771Z,24.97
2023-05-19T09:52:17.882Z,25.35
2023-05-19T09:55:23.262Z,25.62
2023-05-19T09:58:28.288Z,25.74
2023-05-19T10:01:33.717Z,25.05
2023-05-19T10:04:37.594Z,25.24
2023-05-19T10:07:42.181Z,25.55
2023-05-19T10:10:48.127Z,25.72
2023-05-19T10:13:53.447Z,25.15
2023-05-19T10:16:58.247Z,25.25
2023-05-19T10:20:02.419Z,25.57
2023-05-19T10:23:05.579Z,25.64
2023-05-19T10:26:10.037Z,25.07
2023-05-19T10:29:18.727Z,25.30
2023-05-19T10:32:28.159Z,25.63
2023-05-19T10:36:10.968Z,25.62
2023-05-19T10:39:19.149Z,25.06
2023-05-19T10:42:33.442Z,25.41
2023-05-19T10:45:43.373Z,25.65
2023-05-19T10:48:47.510Z,25.38
2023-05-19T10:51:50.982Z,25.10
2023-05-19T10:54:54.888Z,25.41
2023-05-19T10:57:58.381Z,25.69
2023-05-19T11:01:03.327Z,25.42
2023-05-19T11:04:08.110Z,25.14
2023-05-19T11:07:11.470Z,25.47
2023-05-19T11:10:14.837Z,25.72
2023-05-19T11:13:23.159Z,25.50
2023-05-19T11:16:32.787Z,25.17
2023-05-19T11:19:37.436Z,25.52
2023-05-19T11:22:41.395Z,25.69
2023-05-19T11:25:47.162Z,25.46
2023-05-19T11:28:50.845Z,25.16
2023-05-19T11:31:56.043Z,25.54
2023-05-19T11:34:59.269Z,25.68
2023-05-19T11:38:03.272Z,25.56
2023-05-19T11:41:06.611Z,25.05
2023-05-19T11:44:12.428Z,25.19
2023-05-19T11:47:17.725Z,25.44
2023-05-19T11:50:21.347Z,25.54
2023-05-19T11:53:25.079Z,25.51
2023-05-19T11:56:28.185Z,25.55
2023-05-19T11:59:33.445Z,25.53
2023-05-19T12:02:40.161Z,25.58
2023-05-19T12:05:46.063Z,25.61
2023-05-19T12:08:52.564Z,25.63
2023-05-19T12:11:56.694Z,25.62
2023-05-19T12:14:59.852Z,25.67
2023-05-19T12:18:04.796Z,25.78
2023-05-19T12:21:08.142Z,25.84
2023-05-19T12:24:11.331Z,25.83
2023-05-19T12:27:19.633Z,25.13
2023-05-19T12:30:28.688Z,24.44
2023-05-19T12:33:35.673Z,24.10
2023-05-19T12:36:39.527Z,23.86
2023-05-19T12:39:43.945Z,23.71
2023-05-19T12:42:48.746Z,23.64
2023-05-19T12:45:52.466Z,23.59
2023-05-19T12:49:00.832Z,23.52
2023-05-19T12:52:07.092Z,23.50
2023-05-19T12:55:14.412Z,23.47
2023-05-19T12:58:17.822Z,23.43
2023-05-19T13:01:21.094Z,23.41
2023-05-19T13:04:26.364Z,23.35
2023-05-19T13:07:29.734Z,23.27
2023-05-19T13:10:33.332Z,23.25
2023-05-19T13:13:37.130Z,23.23
2023-05-19T13:16:40.340Z,23.17
2023-05-19T13:19:44.981Z,23.16
2023-05-19T13:22:48.839Z,23.15
2023-05-19T13:25:52.913Z,23.10
2023-05-19T13:28:56.022Z,23.11
2023-05-19T13:32:01.186Z,23.06
2023-05-19T13:35:06.969Z,23.06
2023-05-19T13:38:11.207Z,23.06
2023-05-19T13:41:16.003Z,23.03
2023-05-19T13:44:19.367Z,23.03
2023-05-19T13:51:49.983Z,22.99
2023-05-19T13:59:18.920Z,22.86
2023-05-19T14:02:22.181Z,22.67
2023-05-19T14:05:25.441Z,22.63
2023-05-19T14:08:30.014Z,22.63
2023-05-19T14:11:33.356Z,22.60
2023-05-19T14:14:36.642Z,22.62
2023-05-19T14:17:39.909Z,22.58
2023-05-19T14:20:43.118Z,22.61
2023-05-19T14:23:47.736Z,22.61
2023-05-19T14:26:51.233Z,22.59
2023-05-19T14:29:54.322Z,22.62
2023-05-19T14:32:58.111Z,22.60
2023-05-19T14:36:01.833Z,22.60
2023-05-19T14:39:06.587Z,22.61
2023-05-19T14:42:10.594Z,22.56
2023-05-19T14:45:14.188Z,22.52
2023-05-19T14:48:17.672Z,22.50
2023-05-19T14:51:20.988Z,22.50
2023-05-19T14:54:25.605Z,22.53
2023-05-19T14:57:28.773Z,22.47
2023-05-19T15:00:32.268Z,22.46
2023-05-19T15:03:35.932Z,22.46
2023-05-19T15:06:39.195Z,22.43
2023-05-19T15:09:43.878Z,22.44
2023-05-19T15:12:47.082Z,22.43
2023-05-19T15:15:50.424Z,22.45
2023-05-19T15:18:53.721Z,22.49
2023-05-19T15:21:56.955Z,22.50
2023-05-19T15:25:01.625Z,22.50
2023-05-19T15:28:05.190Z,22.51
2023-05-19T15:31:08.843Z,22.46
2023-05-19T15:34:12.088Z,22.45
2023-05-19T15:37:15.517Z,22.45
2023-05-19T15:40:20.648Z,22.46
2023-05-19T15:43:23.775Z,22.44
2023-05-19T15:46:27.442Z,22.43
2023-05-19T15:49:30.676Z,22.41
2023-05-19T15:52:34.081Z,22.40
2023-05-19T15:55:38.756Z,22.38
2023-05-19T15:58:42.554Z,22.39
2023-05-19T16:01:45.757Z,22.37
2023-05-19T16:04:49.083Z,22.35
2023-05-19T16:07:52.605Z,22.19
2023-05-19T16:10:57.475Z,22.06
2023-05-19T16:14:00.626Z,21.97
2023-05-19T16:17:04.020Z,22.07
2023-05-19T16:20:08.520Z,22.17
2023-05-19T16:23:11.917Z,22.22
2023-05-19T16:26:17.001Z,22.23
2023-05-19T16:29:20.117Z,22.24
2023-05-19T16:32:23.707Z,22.26
2023-05-19T16:35:27.947Z,22.25
2023-05-19T16:38:31.140Z,22.26
2023-05-19T16:41:35.717Z,22.25
2023-05-19T16:44:38.866Z,22.25
2023-05-19T16:47:41.934Z,22.24
2023-05-19T16:50:45.276Z,22.25
2023-05-19T16:53:48.759Z,22.24
2023-05-19T16:56:53.726Z,22.23
2023-05-19T16:59:56.820Z,22.23
2023-05-19T17:03:02.119Z,22.30
2023-05-19T17:06:05.321Z,22.34
2023-05-19T17:09:08.550Z,22.33
2023-05-19T17:12:13.470Z,22.33
2023-05-19T17:15:17.025Z,22.36
2023-05-19T17:18:20.136Z,22.32
2023-05-19T17:21:23.238Z,22.35
2023-05-19T17:24:26.399Z,22.38
2023-05-19T17:27:30.945Z,22.35
2023-05-19T17:30:34.705Z,22.37
2023-05-19T17:33:38.171Z,22.36
2023-05-19T17:36:41.592Z,22.35
2023-05-19T17:39:44.700Z,22.35
2023-05-19T17:42:49.184Z,22.34
2023-05-19T17:45:52.541Z,22.35
2023-05-19T17:48:55.714Z,22.36
2023-05-19T17:51:59.390Z,22.34
2023-05-19T17:55:03.120Z,22.32
2023-05-19T17:58:08.225Z,22.36
2023-05-19T18:01:11.824Z,22.39
2023-05-19T18:04:16.252Z,22.41
2023-05-19T18:07:19.554Z,22.41
2023-05-19T18:10:26.727Z,22.45
2023-05-19T18:13:31.250Z,22.50
2023-05-19T18:16:34.579Z,22.51
2023-05-19T18:19:37.762Z,22.52
2023-05-19T18:22:40.860Z,22.52
2023-05-19T18:25:50.557Z,22.54
2023-05-19T18:28:55.117Z,22.92
2023-05-19T18:31:58.304Z,23.97
2023-05-19T18:35:01.447Z,24.67
2023-05-19T18:38:04.654Z,25.07
2023-05-19T18:41:08.080Z,24.99
2023-05-19T18:44:12.757Z,24.92
2023-05-19T18:47:16.260Z,24.95
2023-05-19T18:50:19.485Z,24.84
2023-05-19T18:53:22.875Z,24.12
2023-05-19T18:56:26.461Z,23.77
2023-05-19T18:59:31.082Z,24.43
2023-05-19T19:02:34.398Z,24.83
2023-05-19T19:05:37.577Z,24.76
2023-05-19T19:08:40.753Z,25.00
2023-05-19T19:11:43.876Z,25.09
2023-05-19T19:14:48.441Z,25.23
2023-05-19T19:17:51.678Z,25.25
2023-05-19T19:20:54.975Z,25.33
2023-05-19T19:23:58.691Z,25.39
2023-05-19T19:27:01.839Z,25.39
2023-05-19T19:30:07.693Z,25.50
2023-05-19T19:33:11.252Z,25.46
2023-05-19T19:36:14.459Z,25.51
2023-05-19T19:39:17.638Z,25.17
2023-05-19T19:42:20.864Z,24.32
2023-05-19T19:45:25.354Z,24.37
2023-05-19T19:48:28.786Z,24.33
2023-05-19T19:51:32.443Z,24.25
2023-05-19T19:54:35.679Z,24.28
2023-05-19T19:57:38.798Z,24.28
2023-05-19T20:00:43.304Z,24.22
2023-05-19T20:03:46.530Z,24.22
2023-05-19T20:06:49.850Z,24.19
2023-05-19T20:09:53.384Z,24.08
2023-05-19T20:12:58.869Z,23.92
2023-05-19T20:16:03.646Z,23.93
2023-05-19T20:19:09.196Z,23.88
2023-05-19T20:22:12.656Z,23.94
2023-05-19T20:25:15.955Z,23.88
2023-05-19T20:28:19.301Z,23.97
2023-05-19T20:31:25.939Z,23.97
2023-05-19T20:34:29.109Z,23.89
2023-05-19T20:37:32.306Z,23.85
2023-05-19T20:40:35.506Z,23.74
2023-05-19T20:43:38.656Z,23.89
2023-05-19T20:46:43.169Z,23.78
2023-05-19T20:49:46.625Z,23.92
2023-05-19T20:52:49.700Z,23.95
2023-05-19T20:55:52.895Z,23.99
2023-05-19T20:58:56.293Z,23.90
2023-05-19T21:02:00.912Z,24.00
2023-05-19T21:05:04.516Z,23.84
2023-05-19T21:08:12.968Z,23.60
2023-05-19T21:11:16.825Z,23.47
2023-05-19T21:14:20.040Z,23.36
2023-05-19T21:17:24.537Z,23.25
2023-05-19T21:20:29.257Z,23.18
2023-05-19T21:23:32.405Z,23.10
2023-05-19T21:26:35.626Z,23.05
2023-05-19T21:29:38.767Z,22.98
2023-05-19T21:32:43.451Z,22.96
2023-05-19T21:35:46.900Z,22.92
2023-05-19T21:38:50.262Z,22.87
2023-05-19T21:41:53.375Z,22.83
2023-05-19T21:44:56.684Z,22.82
2023-05-19T21:48:01.296Z,22.77
2023-05-19T21:51:04.583Z,22.74
2023-05-19T21:54:07.712Z,22.70
2023-05-19T21:57:11.251Z,22.67
2023-05-19T22:00:15.298Z,22.67
2023-05-19T22:03:20.230Z,22.64
2023-05-19T22:06:23.418Z,22.59
2023-05-19T22:09:26.552Z,22.56
2023-05-19T22:12:29.694Z,22.53
2023-05-19T22:15:32.872Z,22.50
2023-05-19T22:18:37.444Z,22.48
2023-05-19T22:21:40.587Z,22.46
2023-05-19T22:24:43.863Z,22.47
2023-05-19T22:27:47.000Z,22.40
2023-05-19T22:30:50.149Z,22.42
2023-05-19T22:33:54.747Z,22.39
2023-05-19T22:36:57.988Z,22.38
2023-05-19T22:40:01.193Z,22.36
2023-05-19T22:43:04.376Z,22.32
2023-05-19T22:46:07.516Z,22.33
2023-05-19T22:49:12.089Z,22.31
2023-05-19T22:52:15.181Z,22.29
2023-05-19T22:55:18.335Z,22.29
2023-05-19T22:58:21.568Z,22.27
2023-05-19T23:01:24.818Z,22.24
2023-05-19T23:04:29.644Z,22.23
2023-05-19T23:07:32.826Z,22.27
2023-05-19T23:10:36.030Z,22.22
2023-05-19T23:13:39.134Z,22.19
2023-05-19T23:16:42.313Z,22.18
2023-05-19T23:19:46.959Z,22.14
2023-05-19T23:22:50.096Z,22.17
2023-05-19T23:25:53.247Z,22.12
2023-05-19T23:28:58.647Z,22.11
2023-05-19T23:32:01.883Z,22.09
2023-05-19T23:35:14.201Z,22.12
2023-05-19T23:38:17.540Z,22.09
2023-05-19T23:41:22.472Z,22.08
2023-05-19T23:44:26.436Z,22.10
2023-05-19T23:47:29.517Z,22.08
2023-05-19T23:50:34.190Z,22.08
2023-05-19T23:53:37.300Z,22.06
2023-05-19T23:56:40.380Z,22.04
2023-05-19T23:59:43.484Z,22.03
